Search for airport 
image banner adimage banner adimage banner ad
image banner ad

PA51 - Bowtie

Located in Biglerville, United States

ICAO - PA51, IATA -

Data provided by Airmate  

General information

Coordinates: N39°54'30" W77°12'19"
Elevation is 560 feet MSL.
Magnetic variation is -10° East
View others Airports in Pennsylvania

Operational data

Special qualification required
Current time UTC:
Current local time:
Weather at : KTHV - York ( 28 km )
METAR: KTHV 152153Z AUTO 32006KT 10SM BKN100 24/12 A2981 RMK AO2 SLP092 T02390122
View NOTAMs / SUP AIP / TFR affecting this airport [VIEW]
Communications frequencies: [VIEW]

Runways:

RWY identifierQFULength (ft)Width (ft)SurfaceLDA (ft)
052100100GRASS
232100100GRASS

Airport contact information

Address: Biglerville United States

Satellite view of PA51